createdAt,value
2022-09-24T00:55:05.129Z,6.68
2022-09-24T01:01:41.752Z,6.45
2022-09-24T01:04:56.627Z,6.75
2022-09-24T01:11:33.259Z,7.22
2022-09-24T01:14:56.147Z,7.78
2022-09-24T01:18:15.717Z,8.13
2022-09-24T01:21:39.619Z,7.57
2022-09-24T01:34:47.753Z,9.55
2022-09-24T01:52:09.725Z,8.40
2022-09-24T01:58:59.734Z,11.15
2022-09-24T02:01:33.064Z,9.68
2022-09-24T02:04:07.201Z,7.32
2022-09-24T02:06:41.491Z,8.32
2022-09-24T02:09:30.366Z,7.45
2022-09-24T02:12:02.767Z,8.45
2022-09-24T02:14:33.934Z,8.93
2022-09-24T02:17:04.473Z,7.95
2022-09-24T02:19:37.295Z,8.50
2022-09-24T02:22:09.449Z,7.95
2022-09-24T02:24:46.549Z,10.18
2022-09-24T02:27:14.555Z,7.07
2022-09-24T02:29:42.211Z,8.93
2022-09-24T02:32:13.589Z,8.80
2022-09-24T02:34:46.329Z,9.10
2022-09-24T02:39:43.631Z,7.55
2022-09-24T02:42:15.146Z,8.57
2022-09-24T02:44:42.711Z,7.22
2022-09-24T02:47:10.505Z,6.70
2022-09-24T02:49:37.992Z,6.82
2022-09-24T02:52:05.646Z,8.65
2022-09-24T02:54:34.545Z,6.07
2022-09-24T02:57:02.028Z,6.97
2022-09-24T02:59:29.518Z,7.68
2022-09-24T03:01:57.178Z,6.75
2022-09-24T03:04:25.330Z,6.40
2022-09-24T03:06:52.823Z,7.65
2022-09-24T03:09:20.348Z,6.25
2022-09-24T03:11:50.133Z,7.32
2022-09-24T03:14:17.650Z,10.00
2022-09-24T03:16:45.258Z,8.15
2022-09-24T03:19:12.718Z,8.10
2022-09-24T03:21:40.222Z,5.88
2022-09-24T03:24:07.829Z,9.60
2022-09-24T03:26:35.396Z,7.78
2022-09-24T03:29:04.293Z,9.25
2022-09-24T03:31:30.879Z,6.07
2022-09-24T03:33:58.570Z,8.10
2022-09-24T03:36:27.092Z,10.60
2022-09-24T03:38:56.841Z,7.72
2022-09-24T03:41:26.133Z,10.40
2022-09-24T03:43:53.657Z,10.13
2022-09-24T03:46:27.717Z,13.35
2022-09-24T03:48:56.143Z,7.10
2022-09-24T03:51:24.391Z,10.30
2022-09-24T03:53:51.868Z,11.15
2022-09-24T03:56:19.350Z,10.23
2022-09-24T03:58:47.603Z,11.45
2022-09-24T04:01:21.756Z,11.00
2022-09-24T04:03:51.190Z,10.63
2022-09-24T04:06:24.791Z,11.23
2022-09-24T04:08:53.732Z,17.98
2022-09-24T04:11:21.276Z,10.18
2022-09-24T04:13:48.883Z,10.60
2022-09-24T04:16:16.765Z,10.60
2022-09-24T04:18:44.425Z,12.60
2022-09-24T04:21:13.386Z,12.70
2022-09-24T04:23:40.935Z,12.65
2022-09-24T04:26:08.482Z,12.30
2022-09-24T04:28:36.022Z,12.15
2022-09-24T04:31:03.662Z,9.82
2022-09-24T04:33:31.298Z,12.02
2022-09-24T04:35:58.840Z,19.33
2022-09-24T04:38:37.331Z,14.32
2022-09-24T04:41:06.989Z,9.52
2022-09-24T04:43:34.864Z,10.73
2022-09-24T04:46:02.762Z,13.25
2022-09-24T04:48:30.825Z,11.98
2022-09-24T04:50:58.584Z,12.00
2022-09-24T04:53:27.701Z,13.57
2022-09-24T04:55:55.309Z,11.65
2022-09-24T04:58:24.991Z,11.88
2022-09-24T05:00:53.274Z,13.07
2022-09-24T05:03:21.228Z,12.48
2022-09-24T05:05:50.946Z,13.75
2022-09-24T05:11:13.477Z,13.15
2022-09-24T05:13:42.608Z,15.07
2022-09-24T05:16:11.563Z,14.32
2022-09-24T05:18:41.712Z,14.63
2022-09-24T05:21:10.941Z,15.10
2022-09-24T05:23:39.087Z,12.40
2022-09-24T05:26:24.333Z,12.20
2022-09-24T05:28:53.711Z,13.55
2022-09-24T05:31:21.347Z,12.48
2022-09-24T05:33:49.370Z,13.73
2022-09-24T05:36:16.960Z,15.23
2022-09-24T05:38:44.673Z,12.85
2022-09-24T05:41:12.445Z,14.38
2022-09-24T05:43:41.157Z,10.90
2022-09-24T05:46:10.287Z,9.75
2022-09-24T05:48:38.735Z,11.95
2022-09-24T05:51:08.378Z,11.05
2022-09-24T05:53:37.376Z,10.77
2022-09-24T05:56:04.905Z,9.60
2022-09-24T05:58:33.992Z,11.20
2022-09-24T06:01:03.046Z,10.18
2022-09-24T06:03:36.271Z,9.55
2022-09-24T06:06:08.428Z,9.25
2022-09-24T06:08:36.252Z,9.45
2022-09-24T06:11:08.894Z,9.43
2022-09-24T06:22:20.757Z,9.20
2022-09-24T06:24:52.133Z,12.00
2022-09-24T06:27:22.256Z,29.08
2022-09-24T06:29:51.717Z,37.50
2022-09-24T06:32:39.297Z,16.25
2022-09-24T06:35:09.195Z,10.95
2022-09-24T06:37:37.966Z,10.88
2022-09-24T06:40:06.742Z,10.38
2022-09-24T06:42:34.795Z,13.30
2022-09-24T06:47:37.542Z,11.82
2022-09-24T06:50:06.142Z,15.18
2022-09-24T06:52:34.999Z,15.05
2022-09-24T06:55:02.512Z,14.75
2022-09-24T06:57:31.708Z,13.23
2022-09-24T06:59:59.445Z,13.95
2022-09-24T07:02:27.267Z,9.52
2022-09-24T07:05:06.250Z,10.20
2022-09-24T07:07:35.647Z,10.27
2022-09-24T07:10:06.491Z,12.75
2022-09-24T07:12:35.524Z,13.38
2022-09-24T07:15:04.867Z,11.75
2022-09-24T07:17:34.003Z,10.75
2022-09-24T07:20:02.095Z,11.35
2022-09-24T07:22:29.751Z,12.10
2022-09-24T07:24:58.699Z,10.07
2022-09-24T07:27:26.687Z,10.25
2022-09-24T07:29:54.605Z,11.55
2022-09-24T07:32:25.062Z,12.38
2022-09-24T07:34:57.216Z,17.25
2022-09-24T07:37:25.013Z,12.98
2022-09-24T07:39:52.721Z,9.85
2022-09-24T07:42:21.747Z,10.35
2022-09-24T07:44:49.266Z,8.25
2022-09-24T07:47:16.894Z,10.23
2022-09-24T07:49:44.569Z,8.52
2022-09-24T07:52:12.462Z,11.13
2022-09-24T07:54:39.949Z,11.32
2022-09-24T07:57:12.002Z,10.98
2022-09-24T07:59:41.484Z,8.90
2022-09-24T08:02:16.161Z,14.63
2022-09-24T08:38:22.532Z,10.52
2022-09-24T08:47:32.367Z,9.73
2022-09-24T08:50:17.628Z,7.63
2022-09-24T08:53:26.971Z,6.22
2022-09-24T09:04:19.637Z,8.50
2022-09-24T09:10:45.149Z,8.23
2022-09-24T09:14:14.457Z,8.45
2022-09-24T09:28:03.039Z,8.15
2022-09-24T09:30:55.148Z,8.45
2022-09-24T09:33:41.667Z,7.80
2022-09-24T09:36:47.147Z,6.90
2022-09-24T09:40:03.980Z,6.68
2022-09-24T09:42:52.467Z,5.75
2022-09-24T09:49:06.496Z,5.60
2022-09-24T09:51:47.091Z,7.18
2022-09-24T11:14:31.123Z,4.32
2022-09-24T12:00:14.074Z,3.15
2022-09-24T12:02:57.601Z,4.35
2022-09-24T12:15:29.457Z,4.18
2022-09-24T12:18:14.927Z,3.67
2022-09-24T12:21:07.430Z,2.80
2022-09-24T12:23:41.792Z,3.58
2022-09-24T12:26:17.601Z,3.10
2022-09-24T12:29:18.812Z,2.55
2022-09-24T12:35:27.114Z,2.72
2022-09-24T12:38:06.185Z,2.60
2022-09-24T12:44:29.869Z,2.33
2022-09-24T12:51:21.363Z,4.05
2022-09-24T12:54:13.000Z,3.05
2022-09-24T12:57:09.084Z,2.95
2022-09-24T12:59:49.275Z,3.40
2022-09-24T13:02:25.552Z,2.85
2022-09-24T13:05:18.983Z,4.32
2022-09-24T13:08:12.396Z,3.78
2022-09-24T13:11:01.166Z,3.10
2022-09-24T13:13:33.542Z,3.42
2022-09-24T13:16:12.193Z,2.83
2022-09-24T13:18:59.970Z,2.95
2022-09-24T14:17:57.152Z,4.38
2022-09-24T15:02:37.013Z,6.00
2022-09-24T15:08:32.006Z,4.63
2022-09-24T15:11:03.997Z,7.40
2022-09-24T15:13:33.572Z,3.97
2022-09-24T15:16:06.784Z,5.65
2022-09-24T15:18:36.454Z,5.38
2022-09-24T15:21:08.411Z,5.10
2022-09-24T15:23:36.389Z,6.38
2022-09-24T15:26:04.949Z,6.18
2022-09-24T15:28:33.925Z,5.85
2022-09-24T15:31:01.571Z,18.60
2022-09-24T15:33:29.464Z,10.60
2022-09-24T15:35:58.909Z,6.78
2022-09-24T15:38:27.130Z,5.35
2022-09-24T15:40:55.242Z,7.07
2022-09-24T15:43:25.155Z,5.95
2022-09-24T15:45:53.078Z,5.45
2022-09-24T15:48:20.934Z,7.05
2022-09-24T15:50:52.051Z,9.50
2022-09-24T15:53:23.759Z,9.07
2022-09-24T15:55:56.529Z,10.20
2022-09-24T16:00:52.513Z,7.10
2022-09-24T16:03:22.933Z,7.93
2022-09-24T16:05:50.528Z,5.63
2022-09-24T16:08:18.763Z,6.57
2022-09-24T16:10:48.130Z,9.25
2022-09-24T16:13:16.762Z,6.82
2022-09-24T16:15:45.346Z,8.18
2022-09-24T16:18:15.150Z,6.07
2022-09-24T16:20:45.276Z,11.52
2022-09-24T16:23:15.139Z,10.85
2022-09-24T16:25:43.315Z,7.63
2022-09-24T16:28:12.093Z,7.90
2022-09-24T16:30:39.521Z,5.97
2022-09-24T16:33:07.300Z,7.18
2022-09-24T16:35:34.831Z,7.32
2022-09-24T16:38:02.343Z,16.02
2022-09-24T16:40:29.813Z,29.27
2022-09-24T16:43:00.624Z,33.70
2022-09-24T16:45:29.509Z,35.97
2022-09-24T16:47:56.982Z,19.08
2022-09-24T16:50:24.529Z,11.15
2022-09-24T16:52:54.822Z,8.10
2022-09-24T16:55:24.092Z,8.48
2022-09-24T16:57:52.302Z,7.13
2022-09-24T17:00:20.149Z,9.43
2022-09-24T17:02:48.963Z,6.50
2022-09-24T17:05:16.616Z,8.23
2022-09-24T17:07:44.131Z,6.93
2022-09-24T17:10:14.156Z,8.43
2022-09-24T17:12:42.855Z,20.25
2022-09-24T17:15:10.861Z,13.70
2022-09-24T17:17:49.079Z,7.90
2022-09-24T17:20:20.297Z,7.32
2022-09-24T17:22:55.041Z,8.73
2022-09-24T17:25:22.703Z,6.55
2022-09-24T17:27:50.189Z,6.63
2022-09-24T17:30:17.665Z,6.13
2022-09-24T17:32:45.124Z,5.97
2022-09-24T17:35:13.472Z,6.60
2022-09-24T17:37:42.820Z,5.72
2022-09-24T17:40:11.001Z,5.80
2022-09-24T17:42:38.657Z,6.93
2022-09-24T17:45:07.554Z,6.00
2022-09-24T17:47:48.947Z,8.90
2022-09-24T17:50:16.700Z,8.43
2022-09-24T17:52:45.492Z,8.55
2022-09-24T17:55:13.052Z,7.70
2022-09-24T17:57:40.581Z,7.95
2022-09-24T18:00:09.536Z,7.18
2022-09-24T18:02:36.984Z,6.68
2022-09-24T18:05:04.619Z,7.07
2022-09-24T18:07:32.029Z,6.95
2022-09-24T18:10:05.497Z,5.50
2022-09-24T18:18:03.067Z,7.38
2022-09-24T18:20:31.819Z,8.98
2022-09-24T18:22:59.388Z,7.82
2022-09-24T18:25:28.393Z,9.70
2022-09-24T18:28:00.775Z,9.00
2022-09-24T18:30:28.395Z,8.63
2022-09-24T18:32:55.894Z,6.28
2022-09-24T18:35:23.400Z,7.38
2022-09-24T18:37:51.024Z,10.98
2022-09-24T18:40:18.664Z,8.10
2022-09-24T18:42:47.488Z,9.00
2022-09-24T18:45:14.940Z,10.98
2022-09-24T18:47:42.435Z,9.18
2022-09-24T18:50:10.464Z,8.52
2022-09-24T18:52:37.947Z,9.57
2022-09-24T18:55:06.730Z,8.85
2022-09-24T18:57:34.248Z,8.45
2022-09-24T19:00:03.219Z,9.85
2022-09-24T19:02:31.368Z,8.80
2022-09-24T19:04:59.013Z,8.15
2022-09-24T19:07:26.552Z,6.70
2022-09-24T19:09:54.015Z,8.07
2022-09-24T19:12:21.527Z,6.18
2022-09-24T19:14:49.688Z,6.70
2022-09-24T19:17:18.857Z,6.18
2022-09-24T19:19:52.161Z,6.85
2022-09-24T19:22:19.998Z,6.22
2022-09-24T19:24:47.879Z,9.07
2022-09-24T19:27:15.354Z,8.40
2022-09-24T19:32:21.515Z,5.88
2022-09-24T19:37:24.599Z,29.40
2022-09-24T19:39:52.072Z,10.38
2022-09-24T19:42:19.505Z,9.02
2022-09-24T19:44:46.980Z,6.43
2022-09-24T19:47:14.413Z,4.78
2022-09-24T19:49:43.223Z,7.22
2022-09-24T19:52:10.653Z,7.40
2022-09-24T19:54:38.055Z,7.32
2022-09-24T19:57:05.698Z,4.85
2022-09-24T19:59:33.130Z,7.32
2022-09-24T20:02:00.681Z,5.72
2022-09-24T20:04:28.574Z,5.55
2022-09-24T20:07:02.306Z,4.75
2022-09-24T20:09:33.007Z,5.10
2022-09-24T20:12:00.937Z,6.07
2022-09-24T20:14:33.433Z,4.80
2022-09-24T20:17:01.641Z,7.85
2022-09-24T20:19:29.271Z,5.75
2022-09-24T20:21:58.974Z,6.18
2022-09-24T20:24:26.790Z,6.15
2022-09-24T20:27:14.540Z,6.07
2022-09-24T20:29:44.497Z,6.22
2022-09-24T20:32:15.588Z,6.07
2022-09-24T20:34:44.004Z,5.72
2022-09-24T20:37:13.986Z,5.90
2022-09-24T20:39:41.743Z,7.22
2022-09-24T20:42:09.922Z,7.55
2022-09-24T20:44:37.794Z,7.97
2022-09-24T20:47:05.769Z,8.35
2022-09-24T20:49:34.826Z,8.80
2022-09-24T20:52:03.339Z,9.00
2022-09-24T20:54:33.638Z,12.02
2022-09-24T20:57:01.350Z,11.07
2022-09-24T20:59:30.672Z,11.43
2022-09-24T21:01:58.424Z,10.48
2022-09-24T21:04:27.037Z,10.85
2022-09-24T21:06:55.597Z,12.93
2022-09-24T21:09:23.700Z,10.68
2022-09-24T21:11:54.542Z,11.43
2022-09-24T21:14:22.780Z,11.73
2022-09-24T21:16:50.533Z,11.55
2022-09-24T21:19:18.319Z,12.32
2022-09-24T21:21:46.998Z,11.95
2022-09-24T21:24:16.550Z,12.45
2022-09-24T21:26:45.719Z,12.32
2022-09-24T21:29:17.511Z,11.77
2022-09-24T21:31:46.846Z,13.32
2022-09-24T21:34:16.544Z,12.80
2022-09-24T21:36:46.565Z,13.73
2022-09-24T21:39:16.805Z,12.82
2022-09-24T21:41:48.230Z,13.13
2022-09-24T21:44:19.509Z,15.80
2022-09-24T21:46:47.872Z,12.13
2022-09-24T21:49:17.132Z,15.27
2022-09-24T21:51:45.578Z,15.23
2022-09-24T21:54:15.491Z,15.07
2022-09-24T21:56:43.956Z,13.25
2022-09-24T21:59:33.184Z,15.38
2022-09-24T22:02:03.323Z,15.30
2022-09-24T22:04:32.592Z,14.93
2022-09-24T22:07:00.533Z,16.05
2022-09-24T22:09:29.084Z,16.50
2022-09-24T22:11:58.015Z,15.77
2022-09-24T22:14:26.145Z,16.90
2022-09-24T22:16:56.226Z,15.48
2022-09-24T22:19:25.931Z,13.65
2022-09-24T22:21:54.031Z,16.25
2022-09-24T22:24:22.195Z,17.63
2022-09-24T22:26:50.438Z,17.08
2022-09-24T22:29:18.502Z,18.65
2022-09-24T22:31:46.210Z,16.63
2022-09-24T22:34:31.673Z,18.73
2022-09-24T22:37:01.273Z,17.45
2022-09-24T22:39:29.102Z,20.17
2022-09-24T22:41:57.076Z,17.42
2022-09-24T22:44:25.079Z,18.13
2022-09-24T22:46:52.706Z,19.25
2022-09-24T22:49:20.838Z,17.60
2022-09-24T22:51:48.840Z,22.15
2022-09-24T22:54:18.500Z,20.45
2022-09-24T22:56:46.417Z,20.33
2022-09-24T22:59:14.407Z,18.13
2022-09-24T23:01:44.470Z,18.65
2022-09-24T23:04:15.396Z,21.98
2022-09-24T23:06:44.494Z,20.25
2022-09-24T23:09:12.688Z,19.88
2022-09-24T23:11:42.034Z,18.67
2022-09-24T23:14:14.418Z,19.80
2022-09-24T23:16:43.877Z,19.73
2022-09-24T23:19:15.475Z,16.88
2022-09-24T23:21:44.009Z,21.07
2022-09-24T23:24:15.850Z,18.38
2022-09-24T23:26:45.808Z,21.35
2022-09-24T23:29:14.627Z,23.05
2022-09-24T23:31:42.313Z,21.25
2022-09-24T23:34:10.801Z,22.58
2022-09-24T23:36:39.276Z,21.73
2022-09-24T23:39:07.318Z,23.50
2022-09-24T23:41:35.317Z,20.98
2022-09-24T23:44:04.947Z,20.25
2022-09-24T23:46:33.981Z,21.27
2022-09-24T23:49:02.067Z,23.55
2022-09-24T23:51:29.956Z,19.05
2022-09-24T23:53:57.789Z,19.73
2022-09-24T23:56:25.856Z,17.52
2022-09-24T23:58:55.098Z,19.65
